createdAt,value
2022-12-17T00:01:24.287Z,39.90
2022-12-17T00:04:11.407Z,40.00
2022-12-17T00:06:58.441Z,40.00
2022-12-17T00:09:50.077Z,39.90
2022-12-17T00:12:37.351Z,39.90
2022-12-17T00:15:24.967Z,39.90
2022-12-17T00:18:11.864Z,39.90
2022-12-17T00:20:58.807Z,39.90
2022-12-17T00:23:45.680Z,39.90
2022-12-17T00:26:32.748Z,39.90
2022-12-17T00:29:19.653Z,39.90
2022-12-17T00:32:06.551Z,39.90
2022-12-17T00:34:53.513Z,39.90
2022-12-17T00:37:40.707Z,39.80
2022-12-17T00:40:28.422Z,39.90
2022-12-17T00:43:23.273Z,39.90
2022-12-17T00:46:10.933Z,39.90
2022-12-17T00:48:58.117Z,39.90
2022-12-17T00:51:45.956Z,39.90
2022-12-17T00:54:33.214Z,39.90
2022-12-17T00:57:20.202Z,39.90
2022-12-17T01:00:07.189Z,39.90
2022-12-17T01:02:54.199Z,39.90
2022-12-17T01:05:41.248Z,39.90
2022-12-17T01:08:33.608Z,39.90
2022-12-17T01:11:22.262Z,39.90
2022-12-17T01:14:09.519Z,39.90
2022-12-17T01:16:56.575Z,39.90
2022-12-17T01:19:43.755Z,39.90
2022-12-17T01:22:30.783Z,39.80
2022-12-17T01:25:17.691Z,39.90
2022-12-17T01:28:08.971Z,39.90
2022-12-17T01:30:57.733Z,39.90
2022-12-17T01:33:44.958Z,39.90
2022-12-17T01:36:32.058Z,39.90
2022-12-17T01:39:18.961Z,39.90
2022-12-17T01:42:05.884Z,39.90
2022-12-17T01:45:09.196Z,39.80
2022-12-17T01:48:00.970Z,39.80
2022-12-17T01:50:51.516Z,39.80
2022-12-17T01:53:41.906Z,39.80
2022-12-17T01:56:30.006Z,39.80
2022-12-17T01:59:18.263Z,39.80
2022-12-17T02:02:05.366Z,39.70
2022-12-17T02:04:52.733Z,39.80
2022-12-17T02:08:09.782Z,39.70
2022-12-17T02:11:20.360Z,39.70
2022-12-17T02:14:21.945Z,39.70
2022-12-17T02:17:14.117Z,39.70
2022-12-17T02:20:26.943Z,39.70
2022-12-17T02:23:53.543Z,39.60
2022-12-17T02:27:01.964Z,39.60
2022-12-17T02:29:54.238Z,39.60
2022-12-17T02:32:45.026Z,39.60
2022-12-17T02:35:39.853Z,39.70
2022-12-17T02:38:42.628Z,39.60
2022-12-17T02:41:37.081Z,39.50
2022-12-17T02:44:26.041Z,39.50
2022-12-17T02:47:14.636Z,39.50
2022-12-17T02:50:01.607Z,39.50
2022-12-17T02:52:49.018Z,39.50
2022-12-17T02:55:36.015Z,39.40
2022-12-17T02:58:23.060Z,39.50
2022-12-17T03:01:10.042Z,39.40
2022-12-17T03:03:57.004Z,39.40
2022-12-17T03:06:43.970Z,39.40
2022-12-17T03:09:30.877Z,39.40
2022-12-17T03:12:17.834Z,39.40
2022-12-17T03:15:04.715Z,39.40
2022-12-17T03:17:51.604Z,39.30
2022-12-17T03:20:38.545Z,39.30
2022-12-17T03:23:31.345Z,39.20
2022-12-17T03:26:19.971Z,39.80
2022-12-17T03:29:07.740Z,39.20
2022-12-17T03:31:54.899Z,39.20
2022-12-17T03:34:41.894Z,39.20
2022-12-17T03:37:28.957Z,39.20
2022-12-17T03:40:15.851Z,39.10
2022-12-17T03:43:02.891Z,39.10
2022-12-17T03:45:49.790Z,39.10
2022-12-17T03:48:36.735Z,39.00
2022-12-17T03:51:23.758Z,39.00
2022-12-17T03:54:10.703Z,39.00
2022-12-17T03:56:57.698Z,39.00
2022-12-17T03:59:44.591Z,39.00
2022-12-17T04:02:31.719Z,38.90
2022-12-17T04:05:20.461Z,38.90
2022-12-17T04:08:08.461Z,38.80
2022-12-17T04:10:55.425Z,38.80
2022-12-17T04:13:44.222Z,38.70
2022-12-17T04:16:34.463Z,39.20
2022-12-17T04:19:21.397Z,38.60
2022-12-17T04:22:08.311Z,38.60
2022-12-17T04:24:55.229Z,38.50
2022-12-17T04:27:42.178Z,38.50
2022-12-17T04:30:29.681Z,38.50
2022-12-17T04:33:16.571Z,38.50
2022-12-17T04:36:03.559Z,38.40
2022-12-17T04:38:50.597Z,38.90
2022-12-17T04:41:37.663Z,38.40
2022-12-17T04:44:24.672Z,38.40
2022-12-17T04:47:11.633Z,38.90
2022-12-17T04:49:58.545Z,38.30
2022-12-17T04:52:45.500Z,38.20
2022-12-17T04:55:32.472Z,38.20
2022-12-17T04:58:27.079Z,38.20
2022-12-17T05:01:15.190Z,38.20
2022-12-17T05:04:02.276Z,38.20
2022-12-17T05:06:50.499Z,38.20
2022-12-17T05:09:37.428Z,38.20
2022-12-17T05:12:24.609Z,38.20
2022-12-17T05:15:11.495Z,38.20
2022-12-17T05:17:58.426Z,38.10
2022-12-17T05:20:45.383Z,38.20
2022-12-17T05:23:32.425Z,38.10
2022-12-17T05:26:44.598Z,38.20
2022-12-17T05:29:31.825Z,38.10
2022-12-17T05:32:19.193Z,38.10
2022-12-17T05:35:06.107Z,38.10
2022-12-17T05:37:53.013Z,38.00
2022-12-17T05:40:39.967Z,37.70
2022-12-17T05:43:31.001Z,37.40
2022-12-17T05:46:20.952Z,37.30
2022-12-17T05:49:07.950Z,37.30
2022-12-17T05:51:54.892Z,37.30
2022-12-17T05:54:41.836Z,37.30
2022-12-17T05:57:28.788Z,37.40
2022-12-17T06:00:15.703Z,37.40
2022-12-17T06:03:02.723Z,37.40
2022-12-17T06:05:49.707Z,37.50
2022-12-17T06:08:36.710Z,37.50
2022-12-17T06:11:23.639Z,37.40
2022-12-17T06:14:10.585Z,37.40
2022-12-17T06:16:57.500Z,38.00
2022-12-17T06:19:44.463Z,37.40
2022-12-17T06:22:31.432Z,37.40
2022-12-17T06:25:18.402Z,37.30
2022-12-17T06:28:05.395Z,37.30
2022-12-17T06:30:52.369Z,37.20
2022-12-17T06:33:39.532Z,37.10
2022-12-17T06:36:26.604Z,37.00
2022-12-17T06:39:13.655Z,37.00
2022-12-17T06:42:04.269Z,36.90
2022-12-17T06:44:52.068Z,36.70
2022-12-17T06:47:39.835Z,36.60
2022-12-17T06:50:27.728Z,36.60
2022-12-17T06:53:23.108Z,36.50
2022-12-17T06:56:10.069Z,36.40
2022-12-17T06:58:57.383Z,36.30
2022-12-17T07:01:44.506Z,36.30
2022-12-17T07:04:31.796Z,36.20
2022-12-17T07:07:21.766Z,36.10
2022-12-17T07:10:13.977Z,36.10
2022-12-17T07:13:01.318Z,36.00
2022-12-17T07:15:48.220Z,36.00
2022-12-17T07:18:35.142Z,35.90
2022-12-17T07:21:22.067Z,35.90
2022-12-17T07:24:09.088Z,35.80
2022-12-17T07:26:56.055Z,35.70
2022-12-17T07:29:42.974Z,36.30
2022-12-17T07:32:29.837Z,35.60
2022-12-17T07:35:16.724Z,35.60
2022-12-17T07:38:03.606Z,35.50
2022-12-17T07:40:50.575Z,35.40
2022-12-17T07:43:38.212Z,35.30
2022-12-17T07:46:25.401Z,35.30
2022-12-17T07:49:12.316Z,35.20
2022-12-17T07:51:59.215Z,35.10
2022-12-17T07:54:46.155Z,35.00
2022-12-17T07:57:33.123Z,35.00
2022-12-17T08:00:20.049Z,34.90
2022-12-17T08:03:07.080Z,34.80
2022-12-17T08:05:54.145Z,34.80
2022-12-17T08:08:41.033Z,34.80
2022-12-17T08:11:28.029Z,34.70
2022-12-17T08:14:15.023Z,34.60
2022-12-17T08:17:01.989Z,34.40
2022-12-17T08:19:48.957Z,34.40
2022-12-17T08:22:35.901Z,34.20
2022-12-17T08:25:22.828Z,34.20
2022-12-17T08:28:41.551Z,34.20
2022-12-17T08:31:23.327Z,34.10
2022-12-17T08:34:10.283Z,34.10
2022-12-17T08:36:57.224Z,34.00
2022-12-17T08:39:44.167Z,33.80
2022-12-17T08:42:31.120Z,33.90
2022-12-17T08:45:18.051Z,33.80
2022-12-17T08:48:04.951Z,33.60
2022-12-17T08:50:51.852Z,33.50
2022-12-17T08:53:39.159Z,33.40
2022-12-17T08:56:26.854Z,33.40
2022-12-17T08:59:13.876Z,33.40
2022-12-17T09:02:00.944Z,33.30
2022-12-17T09:04:48.029Z,33.30
2022-12-17T09:07:34.980Z,33.20
2022-12-17T09:10:22.164Z,33.10
2022-12-17T09:13:09.107Z,33.70
2022-12-17T09:15:56.079Z,33.00
2022-12-17T09:18:43.260Z,33.10
2022-12-17T09:21:30.193Z,33.60
2022-12-17T09:24:17.140Z,32.90
2022-12-17T09:27:04.052Z,32.90
2022-12-17T09:29:51.025Z,32.90
2022-12-17T09:32:37.936Z,32.90
2022-12-17T09:35:25.104Z,32.80
2022-12-17T09:38:14.504Z,32.70
2022-12-17T09:41:06.355Z,32.80
2022-12-17T09:44:11.337Z,32.80
2022-12-17T09:47:22.749Z,32.80
2022-12-17T09:50:09.675Z,32.70
2022-12-17T09:53:01.001Z,32.70
2022-12-17T09:55:53.705Z,32.60
2022-12-17T09:58:44.059Z,32.60
2022-12-17T10:01:41.511Z,32.50
2022-12-17T10:04:39.590Z,32.50
2022-12-17T10:07:37.674Z,32.40
2022-12-17T10:10:40.582Z,32.50
2022-12-17T10:13:37.929Z,32.40
2022-12-17T10:16:47.981Z,32.40
2022-12-17T10:19:48.622Z,32.30
2022-12-17T10:22:39.165Z,32.30
2022-12-17T10:25:40.512Z,32.20
2022-12-17T10:28:36.674Z,32.30
2022-12-17T10:31:30.835Z,32.30
2022-12-17T10:34:18.087Z,32.20
2022-12-17T10:37:08.796Z,32.00
2022-12-17T10:39:56.245Z,32.00
2022-12-17T10:42:49.246Z,31.90
2022-12-17T10:45:45.626Z,32.20
2022-12-17T10:48:51.492Z,31.80
2022-12-17T10:51:42.238Z,31.90
2022-12-17T10:54:49.711Z,31.80
2022-12-17T10:57:57.882Z,31.70
2022-12-17T11:00:52.529Z,31.60
2022-12-17T11:03:46.889Z,32.10
2022-12-17T11:06:44.800Z,31.60
2022-12-17T11:09:56.195Z,31.50
2022-12-17T11:12:50.811Z,31.50
2022-12-17T11:15:44.466Z,31.30
2022-12-17T11:18:44.349Z,31.30
2022-12-17T11:21:40.902Z,31.20
2022-12-17T11:24:38.131Z,31.30
2022-12-17T11:27:30.713Z,31.20
2022-12-17T11:30:17.676Z,31.20
2022-12-17T11:33:31.708Z,31.10
2022-12-17T11:36:41.178Z,31.10
2022-12-17T11:39:50.529Z,31.10
2022-12-17T11:43:03.184Z,30.90
2022-12-17T11:46:12.632Z,31.60
2022-12-17T11:49:08.382Z,30.90
2022-12-17T11:52:20.430Z,30.80
2022-12-17T11:55:36.681Z,30.80
2022-12-17T11:58:31.649Z,30.70
2022-12-17T12:01:58.438Z,30.90
2022-12-17T12:05:25.153Z,30.80
2022-12-17T12:08:43.556Z,30.90
2022-12-17T12:11:58.316Z,30.90
2022-12-17T12:15:12.270Z,30.60
2022-12-17T12:18:23.330Z,30.60
2022-12-17T12:21:28.903Z,30.70
2022-12-17T12:24:37.103Z,30.60
2022-12-17T12:27:50.543Z,30.50
2022-12-17T12:30:44.208Z,30.50
2022-12-17T12:33:59.288Z,30.50
2022-12-17T12:36:47.476Z,30.50
2022-12-17T12:39:52.125Z,30.50
2022-12-17T12:42:50.090Z,30.60
2022-12-17T12:46:11.099Z,30.40
2022-12-17T12:49:18.967Z,30.40
2022-12-17T12:52:06.219Z,30.30
2022-12-17T12:55:12.581Z,30.30
2022-12-17T12:58:21.473Z,30.30
2022-12-17T13:01:14.807Z,30.50
2022-12-17T13:04:15.570Z,30.30
2022-12-17T13:06:54.521Z,30.30
2022-12-17T13:09:48.008Z,30.40
2022-12-17T13:12:24.056Z,30.30
2022-12-17T13:15:13.624Z,30.30
2022-12-17T13:17:47.243Z,30.30
2022-12-17T13:20:30.458Z,30.30
2022-12-17T13:23:25.997Z,30.30
2022-12-17T13:26:24.186Z,30.40
2022-12-17T13:29:10.480Z,30.30
2022-12-17T13:32:01.023Z,30.40
2022-12-17T13:35:10.521Z,30.50
2022-12-17T13:38:14.947Z,30.50
2022-12-17T13:41:10.749Z,30.50
2022-12-17T13:43:48.236Z,30.50
2022-12-17T13:46:29.853Z,30.50
2022-12-17T13:49:02.939Z,30.50
2022-12-17T13:51:35.483Z,30.50
2022-12-17T13:54:04.854Z,30.50
2022-12-17T13:56:35.730Z,30.50
2022-12-17T13:59:09.267Z,30.50
2022-12-17T14:01:46.663Z,30.50
2022-12-17T14:04:26.061Z,30.50
2022-12-17T14:06:56.075Z,30.50
2022-12-17T14:09:29.627Z,30.50
2022-12-17T14:12:16.592Z,30.50
2022-12-17T14:14:47.673Z,30.60
2022-12-17T14:17:22.655Z,30.60
2022-12-17T14:20:01.794Z,30.60
2022-12-17T14:22:36.283Z,30.60
2022-12-17T14:25:06.214Z,30.60
2022-12-17T14:27:36.393Z,31.20
2022-12-17T14:30:25.382Z,30.60
2022-12-17T14:32:52.571Z,30.60
2022-12-17T14:35:27.101Z,30.60
2022-12-17T14:37:54.248Z,30.60
2022-12-17T14:40:22.866Z,30.60
2022-12-17T14:42:50.693Z,30.60
2022-12-17T14:45:24.397Z,30.60
2022-12-17T14:48:00.328Z,30.60
2022-12-17T14:50:31.400Z,30.60
2022-12-17T14:53:00.795Z,30.60
2022-12-17T14:55:55.978Z,30.60
2022-12-17T14:58:25.521Z,30.60
2022-12-17T15:01:09.171Z,30.70
2022-12-17T15:03:42.270Z,30.60
2022-12-17T15:06:12.189Z,30.60
2022-12-17T15:08:46.361Z,30.70
2022-12-17T15:11:16.371Z,30.70
2022-12-17T15:13:43.610Z,30.70
2022-12-17T15:16:11.149Z,30.70
2022-12-17T15:18:38.836Z,30.60
2022-12-17T15:21:06.276Z,30.60
2022-12-17T15:23:33.749Z,30.70
2022-12-17T15:26:00.777Z,30.70
2022-12-17T15:28:27.879Z,30.70
2022-12-17T15:30:55.207Z,30.80
2022-12-17T15:33:22.360Z,30.80
2022-12-17T15:35:49.443Z,30.90
2022-12-17T15:38:16.463Z,30.90
2022-12-17T15:40:43.590Z,31.00
2022-12-17T15:43:14.029Z,31.10
2022-12-17T15:45:43.199Z,31.10
2022-12-17T15:48:12.256Z,31.20
2022-12-17T15:50:43.098Z,31.30
2022-12-17T15:53:10.373Z,31.30
2022-12-17T15:55:38.299Z,31.40
2022-12-17T15:58:06.580Z,31.50
2022-12-17T16:00:33.872Z,31.50
2022-12-17T16:03:01.035Z,31.50
2022-12-17T16:05:28.301Z,31.60
2022-12-17T16:07:59.217Z,31.70
2022-12-17T16:10:26.327Z,31.70
2022-12-17T16:12:53.371Z,31.80
2022-12-17T16:15:20.420Z,31.90
2022-12-17T16:17:47.648Z,32.40
2022-12-17T16:20:14.724Z,31.90
2022-12-17T16:22:41.786Z,32.00
2022-12-17T16:25:09.147Z,32.00
2022-12-17T16:27:36.217Z,32.10
2022-12-17T16:30:03.801Z,32.10
2022-12-17T16:32:36.125Z,32.10
2022-12-17T16:35:04.996Z,32.20
2022-12-17T16:37:32.198Z,32.30
2022-12-17T16:40:00.408Z,32.30
2022-12-17T16:42:28.137Z,32.40
2022-12-17T16:44:55.236Z,32.30
2022-12-17T16:47:22.264Z,32.40
2022-12-17T16:49:50.985Z,32.50
2022-12-17T16:52:18.301Z,32.50
2022-12-17T16:54:45.407Z,32.50
2022-12-17T16:57:12.454Z,32.50
2022-12-17T16:59:39.549Z,32.50
2022-12-17T17:02:14.008Z,32.60
2022-12-17T17:04:41.283Z,32.60
2022-12-17T17:07:08.419Z,32.70
2022-12-17T17:09:35.509Z,32.70
2022-12-17T17:12:02.597Z,32.70
2022-12-17T17:14:29.970Z,32.70
2022-12-17T17:16:57.074Z,32.70
2022-12-17T17:19:24.071Z,32.80
2022-12-17T17:21:55.058Z,32.80
2022-12-17T17:24:25.571Z,32.80
2022-12-17T17:26:52.926Z,32.80
2022-12-17T17:29:20.420Z,32.80
2022-12-17T17:34:37.798Z,32.80
2022-12-17T17:37:04.901Z,32.90
2022-12-17T17:39:33.372Z,32.90
2022-12-17T17:42:01.224Z,32.90
2022-12-17T17:44:28.323Z,33.00
2022-12-17T17:46:55.538Z,33.00
2022-12-17T17:49:22.643Z,32.90
2022-12-17T17:54:39.648Z,33.00
2022-12-17T17:57:07.234Z,33.10
2022-12-17T17:59:34.622Z,33.10
2022-12-17T18:02:03.301Z,33.10
2022-12-17T18:04:31.155Z,33.10
2022-12-17T18:09:45.313Z,33.20
2022-12-17T18:12:32.216Z,33.20
2022-12-17T18:15:16.448Z,33.30
2022-12-17T18:17:46.863Z,33.30
2022-12-17T18:20:14.728Z,33.30
2022-12-17T18:22:42.171Z,33.30
2022-12-17T18:25:09.429Z,33.30
2022-12-17T18:27:36.528Z,33.40
2022-12-17T18:30:04.210Z,33.40
2022-12-17T18:32:31.281Z,33.40
2022-12-17T18:34:58.387Z,33.40
2022-12-17T18:37:25.451Z,33.40
2022-12-17T18:39:52.488Z,33.50
2022-12-17T18:42:39.389Z,33.50
2022-12-17T18:45:07.169Z,33.60
2022-12-17T18:47:34.224Z,33.50
2022-12-17T18:50:01.247Z,33.60
2022-12-17T18:52:28.360Z,33.60
2022-12-17T18:54:55.436Z,33.60
2022-12-17T18:57:22.598Z,33.60
2022-12-17T18:59:49.696Z,33.60
2022-12-17T19:02:16.944Z,33.60
2022-12-17T19:04:44.385Z,33.60
2022-12-17T19:07:11.733Z,33.60
2022-12-17T19:09:40.322Z,33.60
2022-12-17T19:12:10.101Z,33.70
2022-12-17T19:14:37.373Z,33.70
2022-12-17T19:17:06.171Z,33.70
2022-12-17T19:19:33.859Z,33.70
2022-12-17T19:22:01.024Z,33.70
2022-12-17T19:24:28.175Z,33.70
2022-12-17T19:26:55.297Z,33.80
2022-12-17T19:29:23.012Z,33.80
2022-12-17T19:31:50.576Z,33.80
2022-12-17T19:34:19.407Z,33.90
2022-12-17T19:36:47.772Z,33.90
2022-12-17T19:39:18.212Z,33.90
2022-12-17T19:41:45.410Z,33.90
2022-12-17T19:44:16.303Z,33.90
2022-12-17T19:46:44.195Z,33.90
2022-12-17T19:49:15.688Z,33.90
2022-12-17T19:51:44.575Z,33.90
2022-12-17T19:54:15.219Z,33.90
2022-12-17T19:56:44.743Z,33.90
2022-12-17T19:59:13.440Z,33.90
2022-12-17T20:01:44.341Z,33.90
2022-12-17T20:04:13.520Z,33.90
2022-12-17T20:06:40.608Z,33.90
2022-12-17T20:09:08.041Z,33.90
2022-12-17T20:11:35.783Z,34.00
2022-12-17T20:14:15.177Z,34.00
2022-12-17T20:16:48.851Z,34.00
2022-12-17T20:19:18.980Z,34.10
2022-12-17T20:21:46.335Z,34.00
2022-12-17T20:24:14.160Z,34.00
2022-12-17T20:26:42.094Z,34.00
2022-12-17T20:29:09.833Z,34.60
2022-12-17T20:31:37.429Z,34.00
2022-12-17T20:34:06.711Z,34.00
2022-12-17T20:36:34.148Z,34.00
2022-12-17T20:39:02.586Z,34.00
2022-12-17T20:41:31.244Z,34.00
2022-12-17T20:43:58.712Z,34.00
2022-12-17T20:46:27.240Z,34.10
2022-12-17T20:48:54.332Z,34.10
2022-12-17T20:51:25.178Z,34.10
2022-12-17T20:53:53.961Z,34.10
2022-12-17T20:56:25.413Z,34.10
2022-12-17T20:58:54.689Z,34.10
2022-12-17T21:01:23.737Z,34.10
2022-12-17T21:03:52.580Z,34.10
2022-12-17T21:06:23.721Z,34.10
2022-12-17T21:08:52.268Z,34.10
2022-12-17T21:11:22.649Z,34.20
2022-12-17T21:13:49.903Z,34.20
2022-12-17T21:16:23.874Z,34.20
2022-12-17T21:18:55.573Z,34.20
2022-12-17T21:21:24.655Z,34.20
2022-12-17T21:23:51.996Z,34.20
2022-12-17T21:26:24.883Z,34.20
2022-12-17T21:28:54.109Z,34.20
2022-12-17T21:31:24.785Z,34.20
2022-12-17T21:33:55.663Z,34.20
2022-12-17T21:36:23.990Z,34.20
2022-12-17T21:38:51.776Z,34.30
2022-12-17T21:41:23.948Z,34.20
2022-12-17T21:43:59.602Z,34.20
2022-12-17T21:46:27.607Z,34.20
2022-12-17T21:48:56.186Z,34.30
2022-12-17T21:51:24.080Z,34.30
2022-12-17T21:53:57.867Z,34.30
2022-12-17T21:56:25.867Z,34.30
2022-12-17T21:58:58.161Z,34.30
2022-12-17T22:01:29.451Z,34.30
2022-12-17T22:03:58.617Z,34.30
2022-12-17T22:06:31.105Z,34.30
2022-12-17T22:09:12.458Z,34.30
2022-12-17T22:11:45.749Z,34.30
2022-12-17T22:14:20.425Z,34.30
2022-12-17T22:16:49.798Z,34.30
2022-12-17T22:19:22.881Z,34.30
2022-12-17T22:21:54.318Z,34.30
2022-12-17T22:24:25.656Z,34.30
2022-12-17T22:27:00.236Z,34.30
2022-12-17T22:29:48.273Z,34.30
2022-12-17T22:32:35.441Z,34.30
2022-12-17T22:35:52.673Z,34.30
2022-12-17T22:39:54.405Z,34.30
2022-12-17T22:44:24.700Z,34.30
2022-12-17T22:44:36.241Z,34.30
2022-12-17T22:46:19.699Z,34.30
2022-12-17T22:48:47.332Z,34.30
2022-12-17T22:51:24.827Z,34.30
2022-12-17T22:53:55.896Z,34.30
2022-12-17T22:56:39.881Z,34.30
2022-12-17T22:59:17.272Z,34.30
2022-12-17T23:01:44.899Z,34.30
2022-12-17T23:04:14.346Z,34.30
2022-12-17T23:06:42.576Z,34.30
2022-12-17T23:09:09.718Z,34.30
2022-12-17T23:11:36.928Z,34.30
2022-12-17T23:14:07.071Z,34.30
2022-12-17T23:16:34.610Z,34.30
2022-12-17T23:19:02.212Z,34.30
2022-12-17T23:21:29.262Z,34.30
2022-12-17T23:23:57.190Z,34.30
2022-12-17T23:26:27.053Z,34.30
2022-12-17T23:29:00.427Z,34.30
2022-12-17T23:31:31.162Z,34.40
2022-12-17T23:33:58.377Z,34.30
2022-12-17T23:36:26.532Z,34.90
2022-12-17T23:38:56.042Z,34.40
2022-12-17T23:41:25.870Z,34.40
2022-12-17T23:43:53.640Z,34.40
2022-12-17T23:46:21.572Z,34.40
2022-12-17T23:48:48.653Z,34.40
2022-12-17T23:51:17.632Z,34.40
2022-12-17T23:53:44.923Z,34.30
2022-12-17T23:56:15.781Z,34.40
2022-12-17T23:58:44.313Z,34.40
